Time;durP1;ratioP1;P1;durP2;ratioP2;P2;SDS_P1;SDS_P2;PMS_P1;PMS_P2;Temp;Humidity;BMP_temperature;BMP_pressure;BME280_temperature;BME280_humidity;BME280_pressure;Samples;Min_cycle;Max_cycle;Signal;HPM_P1;HPM_P2
2022/10/13 00:00:21;;;;;;;34.80;19.90;;;6.00;99.90;;;;;;2603589;54;20023;31
2022/10/13 00:02:55;;;;;;;40.80;20.67;;;6.00;99.90;;;;;;2603718;54;20046;31
2022/10/13 00:05:29;;;;;;;37.85;18.05;;;6.30;99.90;;;;;;2603560;54;20848;31
2022/10/13 00:08:07;;;;;;;32.85;18.98;;;5.90;99.90;;;;;;2603701;54;20857;31
2022/10/13 00:10:49;;;;;;;42.45;18.70;;;5.90;99.90;;;;;;2603672;54;20026;31
2022/10/13 00:13:32;;;;;;;27.87;15.53;;;5.90;99.90;;;;;;2603269;54;20078;31
2022/10/13 00:16:10;;;;;;;33.50;18.90;;;5.80;99.90;;;;;;2603485;54;20851;31
2022/10/13 00:18:43;;;;;;;36.37;18.67;;;5.90;99.90;;;;;;2603353;54;20056;31
2022/10/13 00:21:18;;;;;;;31.58;18.48;;;5.90;99.90;;;;;;2603728;54;20057;31
2022/10/13 00:23:54;;;;;;;32.95;18.65;;;5.80;99.90;;;;;;2603463;54;20092;31
2022/10/13 00:26:30;;;;;;;34.28;18.30;;;5.80;99.90;;;;;;2603528;54;20172;31
2022/10/13 00:29:08;;;;;;;36.20;20.15;;;5.90;99.90;;;;;;2603377;54;20034;31
2022/10/13 00:31:44;;;;;;;32.80;18.40;;;5.80;99.90;;;;;;2603621;54;20087;31
2022/10/13 00:34:18;;;;;;;33.63;18.70;;;6.10;99.90;;;;;;2603421;54;20023;31
2022/10/13 00:36:53;;;;;;;35.10;18.42;;;5.70;99.90;;;;;;2622048;46;20034;31
2022/10/13 00:39:27;;;;;;;38.57;20.03;;;5.80;99.90;;;;;;2603614;54;20030;31
2022/10/13 00:42:02;;;;;;;32.55;18.05;;;5.60;99.90;;;;;;2603678;54;20250;31
2022/10/13 00:45:04;;;;;;;31.45;16.98;;;5.60;99.90;;;;;;2603548;54;20816;31
2022/10/13 00:47:40;;;;;;;29.73;17.23;;;5.60;99.90;;;;;;2603529;54;20040;31
2022/10/13 00:50:18;;;;;;;31.50;16.27;;;5.80;99.90;;;;;;2621760;46;19935;31
2022/10/13 00:52:56;;;;;;;27.15;16.95;;;5.60;99.90;;;;;;2603481;54;20056;31
2022/10/13 00:55:30;;;;;;;27.02;16.58;;;5.60;99.90;;;;;;2621262;46;25100;31
2022/10/13 00:58:07;;;;;;;27.02;16.70;;;5.60;99.90;;;;;;2621699;46;20101;31
2022/10/13 01:00:44;;;;;;;31.60;16.70;;;5.60;99.90;;;;;;2622048;46;20042;31
2022/10/13 01:03:21;;;;;;;26.45;15.38;;;5.60;99.90;;;;;;2603355;54;20033;31
2022/10/13 01:05:57;;;;;;;31.92;17.70;;;5.60;99.90;;;;;;2603458;54;20010;31
2022/10/13 01:08:32;;;;;;;29.63;16.25;;;5.50;99.90;;;;;;2603550;54;20870;31
2022/10/13 01:11:22;;;;;;;28.08;15.98;;;6.10;99.90;;;;;;2621537;46;20818;31
2022/10/13 01:16:33;;;;;;;26.58;16.52;;;5.40;99.90;;;;;;2603333;54;20089;31
2022/10/13 01:19:18;;;;;;;27.00;15.65;;;5.40;99.90;;;;;;2603452;54;20062;31
2022/10/13 01:24:30;;;;;;;27.60;14.47;;;5.40;99.90;;;;;;2603366;54;20033;31
2022/10/13 01:27:39;;;;;;;26.42;16.17;;;5.80;99.90;;;;;;2603245;54;20959;31
2022/10/13 01:30:14;;;;;;;28.95;17.65;;;5.30;99.90;;;;;;2602890;54;20042;31
2022/10/13 01:33:02;;;;;;;32.05;16.67;;;5.30;99.90;;;;;;2620964;46;20879;31
2022/10/13 01:35:49;;;;;;;28.40;16.15;;;5.30;99.90;;;;;;2603394;54;20034;31
2022/10/13 01:38:26;;;;;;;;;;;5.20;99.90;;;;;;2603357;54;20904;31
2022/10/13 01:41:03;;;;;;;29.27;17.90;;;5.20;99.90;;;;;;2621937;46;19934;31
2022/10/13 01:43:38;;;;;;;26.63;17.80;;;5.20;99.90;;;;;;2603192;54;20031;31
2022/10/13 01:46:14;;;;;;;26.50;14.93;;;5.40;99.90;;;;;;2621785;46;20053;31
2022/10/13 01:48:52;;;;;;;33.03;17.92;;;5.60;99.90;;;;;;2603013;54;20837;31
2022/10/13 01:51:28;;;;;;;30.65;16.65;;;5.10;99.90;;;;;;2603072;54;20037;31
2022/10/13 01:54:04;;;;;;;33.43;19.07;;;5.40;99.90;;;;;;2621569;46;20069;31
2022/10/13 01:56:38;;;;;;;33.95;19.73;;;5.10;99.90;;;;;;2603323;54;20277;31
2022/10/13 01:59:15;;;;;;;35.67;18.70;;;5.00;99.90;;;;;;2603126;54;20125;31
2022/10/13 02:01:57;;;;;;;32.35;19.05;;;5.00;99.90;;;;;;2603142;54;20113;31
2022/10/13 02:04:43;;;;;;;34.13;19.38;;;5.00;99.90;;;;;;2603004;54;24605;31
2022/10/13 02:07:21;;;;;;;37.33;20.13;;;5.40;99.90;;;;;;2603130;54;20030;31
2022/10/13 02:09:59;;;;;;;33.35;20.40;;;5.00;99.90;;;;;;2603060;54;20030;31
2022/10/13 02:12:36;;;;;;;34.92;20.98;;;5.00;99.90;;;;;;2602768;54;20027;31
2022/10/13 02:15:10;;;;;;;38.42;23.15;;;5.40;99.90;;;;;;2603014;54;20030;31
2022/10/13 02:17:44;;;;;;;35.50;23.00;;;4.90;99.90;;;;;;2603309;54;20744;31
2022/10/13 02:20:22;;;;;;;35.47;21.85;;;5.10;99.90;;;;;;2602768;54;20192;31
2022/10/13 02:22:58;;;;;;;30.52;19.88;;;5.40;99.90;;;;;;2621585;46;20052;31
2022/10/13 02:25:33;;;;;;;;;;;5.10;99.90;;;;;;2603349;54;20101;31
2022/10/13 02:28:07;;;;;;;39.30;22.27;;;4.90;99.90;;;;;;2603248;54;19935;31
2022/10/13 02:30:49;;;;;;;35.28;22.25;;;4.90;99.90;;;;;;2603255;54;20791;31
2022/10/13 02:33:23;;;;;;;35.03;22.73;;;5.30;99.90;;;;;;2602949;54;20042;31
2022/10/13 02:36:02;;;;;;;36.17;22.65;;;5.50;99.90;;;;;;2602806;54;20089;31
2022/10/13 02:38:36;;;;;;;41.30;24.05;;;5.20;99.90;;;;;;2602898;54;20030;31
2022/10/13 02:41:12;;;;;;;38.92;24.42;;;4.90;99.90;;;;;;2621264;47;20838;31
2022/10/13 02:43:47;;;;;;;39.17;23.27;;;5.40;99.90;;;;;;2603218;54;20069;31
2022/10/13 02:46:21;;;;;;;36.40;21.67;;;4.80;99.90;;;;;;2603655;54;20030;31
2022/10/13 02:48:56;;;;;;;41.20;23.90;;;4.90;99.90;;;;;;2603856;54;20245;31
2022/10/13 02:51:34;;;;;;;34.83;22.15;;;4.80;99.90;;;;;;2603982;54;20029;31
2022/10/13 02:54:15;;;;;;;37.80;24.60;;;4.80;99.90;;;;;;2603596;54;20037;31
2022/10/13 02:56:48;;;;;;;43.13;25.58;;;4.80;99.90;;;;;;2603681;54;20053;31
2022/10/13 02:59:22;;;;;;;42.87;26.23;;;4.80;99.90;;;;;;2603685;54;20876;31
2022/10/13 03:01:57;;;;;;;45.45;27.13;;;4.80;99.90;;;;;;2603968;54;20884;31
2022/10/13 03:04:33;;;;;;;42.05;24.63;;;4.90;99.90;;;;;;2603777;54;20022;31
2022/10/13 03:07:12;;;;;;;38.30;24.70;;;4.70;99.90;;;;;;2603931;54;20908;31
2022/10/13 03:09:46;;;;;;;35.17;23.37;;;5.30;99.90;;;;;;2603671;54;20847;31
2022/10/13 03:12:21;;;;;;;38.30;23.42;;;4.70;99.90;;;;;;2603914;54;20030;31
2022/10/13 03:14:56;;;;;;;42.80;26.90;;;5.20;99.90;;;;;;2603719;54;20026;31
2022/10/13 03:17:31;;;;;;;44.35;28.45;;;4.80;99.90;;;;;;2603910;54;20031;31
2022/10/13 03:20:06;;;;;;;40.27;24.57;;;4.70;99.90;;;;;;2603505;54;20034;31
2022/10/13 03:22:43;;;;;;;46.55;27.92;;;4.70;99.90;;;;;;2603618;54;20250;31
2022/10/13 03:25:22;;;;;;;40.97;26.23;;;5.00;99.90;;;;;;2603586;54;20073;31
2022/10/13 03:27:57;;;;;;;44.05;26.20;;;4.90;99.90;;;;;;2603838;54;20871;31
2022/10/13 03:30:31;;;;;;;51.67;28.50;;;4.70;99.90;;;;;;2603799;54;20133;31
2022/10/13 03:33:07;;;;;;;42.30;25.25;;;4.60;99.90;;;;;;2622320;46;20892;31
2022/10/13 03:35:41;;;;;;;38.87;25.57;;;5.20;99.90;;;;;;2603685;54;20031;31
2022/10/13 03:38:19;;;;;;;42.30;26.52;;;5.20;99.90;;;;;;2603771;54;20267;31
2022/10/13 03:40:54;;;;;;;41.17;26.95;;;5.10;99.90;;;;;;2603726;54;20133;31
2022/10/13 03:43:28;;;;;;;44.67;26.10;;;5.10;99.90;;;;;;2603677;54;20038;31
2022/10/13 03:46:03;;;;;;;51.53;28.40;;;4.60;99.90;;;;;;2603513;54;20037;31
2022/10/13 03:48:38;;;;;;;44.70;26.67;;;4.60;99.90;;;;;;2603426;54;20046;31
2022/10/13 03:51:14;;;;;;;48.80;26.52;;;4.60;99.90;;;;;;2622083;46;20030;31
2022/10/13 03:53:54;;;;;;;48.05;27.75;;;4.60;99.90;;;;;;2603492;54;20121;31
2022/10/13 03:56:30;;;;;;;42.22;27.15;;;4.50;99.90;;;;;;2603449;54;20022;31
2022/10/13 03:59:05;;;;;;;43.20;25.00;;;4.50;99.90;;;;;;2603784;54;20061;31
2022/10/13 04:01:39;;;;;;;45.80;27.33;;;4.50;99.90;;;;;;2603489;54;20033;31
2022/10/13 04:04:14;;;;;;;45.65;27.27;;;4.50;99.90;;;;;;2603643;54;20900;31
2022/10/13 04:06:58;;;;;;;50.90;28.85;;;4.50;99.90;;;;;;2603506;54;20053;31
2022/10/13 04:09:36;;;;;;;46.15;26.25;;;4.50;99.90;;;;;;2603354;54;20896;31
2022/10/13 04:12:11;;;;;;;42.58;27.73;;;4.50;99.90;;;;;;2603485;54;20099;31
2022/10/13 04:14:54;;;;;;;48.40;30.65;;;4.50;99.90;;;;;;2603392;54;20033;31
2022/10/13 04:17:28;;;;;;;50.22;29.08;;;4.40;99.90;;;;;;2603489;54;20057;31
2022/10/13 04:20:02;;;;;;;46.50;27.25;;;4.40;99.90;;;;;;2603461;54;20068;31
2022/10/13 04:22:40;;;;;;;47.17;28.58;;;4.50;99.90;;;;;;2603447;54;20866;31
2022/10/13 04:25:17;;;;;;;40.58;24.30;;;4.50;99.90;;;;;;2603677;54;20031;31
2022/10/13 04:27:52;;;;;;;46.78;25.92;;;4.40;99.90;;;;;;2603653;54;20033;31
2022/10/13 04:30:28;;;;;;;47.67;27.38;;;4.40;99.90;;;;;;2603695;54;20808;31
2022/10/13 04:33:02;;;;;;;45.70;28.25;;;4.40;99.90;;;;;;2603330;54;20900;31
2022/10/13 04:35:40;;;;;;;47.70;26.80;;;5.00;99.90;;;;;;2621903;46;20802;31
2022/10/13 04:38:14;;;;;;;48.72;28.52;;;4.40;99.90;;;;;;2720727;39;22469;31
2022/10/13 04:40:53;;;;;;;51.70;28.73;;;4.40;99.90;;;;;;2603522;54;20109;31
2022/10/13 04:43:30;;;;;;;42.42;28.42;;;4.80;99.90;;;;;;2603465;54;20971;31
2022/10/13 04:46:06;;;;;;;46.53;29.80;;;4.40;99.90;;;;;;2603538;54;20864;31
2022/10/13 04:48:42;;;;;;;43.10;28.27;;;4.40;99.90;;;;;;2622073;46;20905;31
2022/10/13 04:51:17;;;;;;;;;;;4.40;99.90;;;;;;2603582;54;20890;31
2022/10/13 04:53:55;;;;;;;61.28;33.20;;;4.40;99.90;;;;;;2603240;54;20821;31
2022/10/13 04:56:34;;;;;;;59.00;37.28;;;4.40;99.90;;;;;;2603319;54;20882;31
2022/10/13 04:59:09;;;;;;;71.18;40.08;;;4.80;99.90;;;;;;2603438;54;20022;31
2022/10/13 05:01:43;;;;;;;52.55;32.95;;;4.40;99.90;;;;;;2603287;54;20030;31
2022/10/13 05:04:20;;;;;;;44.80;28.83;;;4.40;99.90;;;;;;2603388;54;20831;31
2022/10/13 05:06:56;;;;;;;47.78;28.17;;;4.40;99.90;;;;;;2603288;54;20271;31
2022/10/13 05:09:54;;;;;;;75.22;38.60;;;4.40;99.90;;;;;;2622113;46;20905;31
2022/10/13 05:12:31;;;;;;;66.80;32.55;;;4.40;99.90;;;;;;2602301;54;19957;31
2022/10/13 05:15:08;;;;;;;117.95;50.42;;;4.80;99.90;;;;;;2603421;54;20822;31
2022/10/13 05:17:46;;;;;;;114.78;54.60;;;4.40;99.90;;;;;;2621836;46;20053;31
2022/10/13 05:20:21;;;;;;;123.15;59.30;;;4.40;99.90;;;;;;2602434;54;20889;31
2022/10/13 05:22:57;;;;;;;137.70;74.80;;;4.40;99.90;;;;;;2603403;54;20030;31
2022/10/13 05:25:32;;;;;;;74.00;44.90;;;4.90;99.90;;;;;;2603495;54;20807;31
2022/10/13 05:28:10;;;;;;;56.50;35.00;;;4.30;99.90;;;;;;2603199;54;20022;31
2022/10/13 05:30:42;;;;;;;51.00;31.90;;;4.30;99.90;;;;;;2702218;39;22347;31
2022/10/13 05:33:17;;;;;;;57.10;30.95;;;4.40;99.90;;;;;;2603219;54;20093;31
2022/10/13 05:35:51;;;;;;;48.47;30.13;;;4.90;99.90;;;;;;2603251;54;20044;31
2022/10/13 05:38:26;;;;;;;46.55;27.85;;;4.50;99.90;;;;;;2603198;54;20026;31
2022/10/13 05:41:04;;;;;;;45.80;27.23;;;4.60;99.90;;;;;;2603190;54;20821;31
2022/10/13 05:43:42;;;;;;;41.75;26.77;;;4.80;99.90;;;;;;2603125;54;20030;31
2022/10/13 05:46:20;;;;;;;45.25;27.80;;;5.50;99.90;;;;;;2603157;54;21000;31
2022/10/13 05:48:54;;;;;;;43.33;25.02;;;5.60;99.90;;;;;;2603150;54;20863;31
2022/10/13 05:51:32;;;;;;;38.15;27.55;;;5.40;99.90;;;;;;2621898;46;20907;31
2022/10/13 05:54:07;;;;;;;40.92;23.98;;;5.60;99.90;;;;;;2603182;54;20164;31
2022/10/13 05:56:43;;;;;;;41.10;24.65;;;5.80;99.90;;;;;;2603232;54;20026;31
2022/10/13 05:59:17;;;;;;;43.45;25.60;;;6.10;99.90;;;;;;2621610;46;20032;31
2022/10/13 06:02:00;;;;;;;41.92;25.98;;;6.30;99.90;;;;;;2603032;54;20030;31
2022/10/13 06:04:37;;;;;;;43.60;24.85;;;6.60;99.90;;;;;;2621143;46;20050;31
2022/10/13 06:07:11;;;;;;;46.25;25.02;;;6.80;99.90;;;;;;2602946;54;20929;31
2022/10/13 06:09:46;;;;;;;37.40;21.80;;;7.30;99.90;;;;;;2603075;54;20034;31
2022/10/13 06:12:21;;;;;;;33.10;22.90;;;7.30;99.90;;;;;;2603015;54;20052;31
2022/10/13 06:14:56;;;;;;;34.20;23.00;;;7.60;99.90;;;;;;2602861;54;20029;31
2022/10/13 06:17:33;;;;;;;36.20;23.25;;;8.00;99.90;;;;;;2602907;54;20858;31
2022/10/13 06:20:08;;;;;;;35.27;22.77;;;7.90;99.90;;;;;;2602914;54;20028;31
2022/10/13 06:22:42;;;;;;;38.57;22.37;;;8.20;99.90;;;;;;2603187;54;19939;31
2022/10/13 06:25:19;;;;;;;37.05;22.70;;;8.40;99.90;;;;;;2602858;54;20042;31
2022/10/13 06:27:55;;;;;;;34.93;22.57;;;8.70;99.90;;;;;;2621506;47;20038;31
2022/10/13 06:30:29;;;;;;;42.63;23.57;;;8.80;99.90;;;;;;2602997;54;20038;31
2022/10/13 06:33:08;;;;;;;39.88;23.90;;;9.10;99.90;;;;;;2603021;54;20876;31
2022/10/13 06:35:42;;;;;;;32.45;22.15;;;9.40;99.90;;;;;;2603048;54;20885;31
2022/10/13 06:38:17;;;;;;;42.33;23.45;;;9.90;99.90;;;;;;2602833;54;20085;31
2022/10/13 06:40:53;;;;;;;38.33;22.63;;;10.00;99.90;;;;;;2621756;47;20092;31
2022/10/13 06:43:28;;;;;;;40.43;24.97;;;10.20;99.90;;;;;;2603156;54;20287;31
2022/10/13 06:46:14;;;;;;;;;;;10.50;99.90;;;;;;2621708;47;20092;31
2022/10/13 06:48:53;;;;;;;40.45;23.85;;;10.60;99.90;;;;;;2603051;54;19942;31
2022/10/13 06:51:28;;;;;;;37.92;25.15;;;10.70;99.90;;;;;;2602845;54;20836;31
2022/10/13 06:54:02;;;;;;;37.60;24.50;;;11.00;99.90;;;;;;2603108;54;20800;31
2022/10/13 06:56:39;;;;;;;42.85;27.20;;;11.00;99.90;;;;;;2602978;54;20069;31
2022/10/13 06:59:17;;;;;;;41.50;25.40;;;11.00;99.90;;;;;;2602933;54;20837;31
2022/10/13 07:01:52;;;;;;;39.50;26.38;;;11.00;99.90;;;;;;2602878;54;20953;31
2022/10/13 07:04:31;;;;;;;41.45;27.13;;;11.10;99.90;;;;;;2603062;54;20820;31
2022/10/13 07:07:05;;;;;;;42.78;26.92;;;11.20;99.90;;;;;;2603021;54;20027;31
2022/10/13 07:09:39;;;;;;;45.25;28.00;;;11.60;99.90;;;;;;2602861;54;20854;31
2022/10/13 07:12:14;;;;;;;45.70;28.15;;;11.70;99.90;;;;;;2620869;47;20916;31
2022/10/13 07:14:49;;;;;;;43.25;28.45;;;11.40;99.90;;;;;;2603059;54;20845;31
2022/10/13 07:17:23;;;;;;;46.85;32.15;;;11.40;99.90;;;;;;2602795;54;20085;31
2022/10/13 07:20:01;;;;;;;40.65;28.25;;;11.50;99.90;;;;;;2602918;54;20031;31
2022/10/13 07:22:40;;;;;;;47.28;28.33;;;11.70;99.90;;;;;;2621408;47;20896;31
2022/10/13 07:25:16;;;;;;;41.85;28.25;;;11.90;99.90;;;;;;2602897;54;20026;31
2022/10/13 07:27:51;;;;;;;40.83;27.60;;;12.00;99.90;;;;;;2602571;54;20851;31
2022/10/13 07:30:27;;;;;;;41.10;27.45;;;12.40;99.90;;;;;;2601952;54;21247;31
2022/10/13 07:33:02;;;;;;;48.33;30.27;;;12.50;99.90;;;;;;2603556;54;20924;31
2022/10/13 07:35:40;;;;;;;41.95;27.60;;;12.50;99.90;;;;;;2603561;54;20037;31
2022/10/13 07:38:18;;;;;;;45.25;28.95;;;13.00;99.90;;;;;;2603689;54;20055;31
2022/10/13 07:40:56;;;;;;;41.80;29.60;;;12.90;99.90;;;;;;2603612;54;21003;31
2022/10/13 07:43:32;;;;;;;44.25;29.77;;;13.30;99.90;;;;;;2602688;54;20029;31
2022/10/13 07:46:12;;;;;;;45.30;31.10;;;13.30;99.90;;;;;;2603734;54;20859;31
2022/10/13 07:48:48;;;;;;;48.40;30.63;;;13.40;99.90;;;;;;2603527;54;20157;31
2022/10/13 07:51:26;;;;;;;43.40;30.97;;;13.60;99.90;;;;;;2603613;54;20038;31
2022/10/13 07:54:00;;;;;;;48.97;30.60;;;13.80;99.90;;;;;;2621653;46;19941;31
2022/10/13 07:56:38;;;;;;;42.90;30.75;;;14.00;99.90;;;;;;2603559;54;20968;31
2022/10/13 07:59:14;;;;;;;45.33;30.15;;;14.10;99.90;;;;;;2621925;46;20022;31
2022/10/13 08:01:50;;;;;;;47.25;29.90;;;14.10;99.90;;;;;;2603668;54;20026;31
2022/10/13 08:04:30;;;;;;;42.95;29.73;;;14.30;99.90;;;;;;2603458;54;20026;31
2022/10/13 08:07:09;;;;;;;45.07;30.20;;;14.40;99.90;;;;;;2603508;54;20983;31
2022/10/13 08:09:44;;;;;;;38.85;27.92;;;14.40;99.90;;;;;;2603431;54;20863;31
2022/10/13 08:12:22;;;;;;;45.22;29.48;;;14.40;99.90;;;;;;2603561;54;20033;31
2022/10/13 08:14:57;;;;;;;43.70;29.55;;;14.40;99.90;;;;;;2603505;54;20941;31
2022/10/13 08:17:35;;;;;;;42.53;27.63;;;14.50;99.90;;;;;;2621585;46;20939;31
2022/10/13 08:20:15;;;;;;;40.47;25.35;;;14.70;99.90;;;;;;2603463;54;20030;31
2022/10/13 08:22:53;;;;;;;38.78;26.67;;;14.90;99.90;;;;;;2621800;46;20050;31
2022/10/13 08:25:28;;;;;;;42.17;25.50;;;15.00;99.90;;;;;;2603653;54;20031;31
2022/10/13 08:28:03;;;;;;;43.45;22.80;;;15.30;99.90;;;;;;2603613;54;20042;31
2022/10/13 08:30:39;;;;;;;38.10;23.60;;;15.90;99.90;;;;;;2603543;54;20050;31
2022/10/13 08:33:14;;;;;;;37.08;24.35;;;15.60;99.90;;;;;;2603358;54;20081;31
2022/10/13 08:35:50;;;;;;;42.40;24.40;;;15.90;99.90;;;;;;2603320;54;20042;31
2022/10/13 08:38:27;;;;;;;;;;;16.00;99.90;;;;;;2621905;46;20837;31
2022/10/13 08:41:02;;;;;;;39.00;26.37;;;15.90;99.90;;;;;;2603522;54;19938;31
2022/10/13 08:43:37;;;;;;;37.55;24.80;;;16.20;99.90;;;;;;2603102;54;20124;31
2022/10/13 08:46:35;;;;;;;34.50;24.67;;;16.00;99.90;;;;;;2603489;54;20085;31
2022/10/13 08:49:12;;;;;;;42.67;28.92;;;16.10;99.90;;;;;;2603502;54;20022;31
2022/10/13 08:51:46;;;;;;;38.15;26.15;;;16.40;99.90;;;;;;2621742;46;20035;31
2022/10/13 08:54:21;;;;;;;34.73;24.30;;;16.10;99.90;;;;;;2603344;54;20848;31
2022/10/13 08:57:00;;;;;;;40.33;27.08;;;16.10;99.90;;;;;;2622032;46;21071;31
2022/10/13 08:59:36;;;;;;;81.80;35.85;;;16.40;99.90;;;;;;2621552;46;20026;31
2022/10/13 09:02:13;;;;;;;61.90;32.78;;;16.20;99.90;;;;;;2621929;46;20042;31
2022/10/13 09:04:48;;;;;;;41.38;22.10;;;16.70;99.90;;;;;;2621735;46;20093;31
2022/10/13 09:07:25;;;;;;;34.58;21.58;;;16.60;99.90;;;;;;2603498;54;20022;31
2022/10/13 09:10:00;;;;;;;36.25;22.50;;;16.70;99.90;;;;;;2621891;46;20952;31
2022/10/13 09:12:39;;;;;;;30.85;18.77;;;16.90;99.90;;;;;;2621530;46;20898;31
2022/10/13 09:15:16;;;;;;;33.22;19.15;;;17.00;99.90;;;;;;2603208;54;20850;31
2022/10/13 09:18:10;;;;;;;37.15;19.25;;;17.10;99.90;;;;;;2621585;46;20105;31
2022/10/13 09:20:45;;;;;;;29.60;17.75;;;17.20;99.90;;;;;;2603360;54;20042;31
2022/10/13 09:23:21;;;;;;;28.17;16.70;;;17.50;99.90;;;;;;2603199;54;20022;31
2022/10/13 09:25:57;;;;;;;26.37;16.37;;;17.40;99.90;;;;;;2603064;54;20022;31
2022/10/13 09:28:37;;;;;;;24.63;16.60;;;17.40;99.90;;;;;;2603449;54;20042;31
2022/10/13 09:31:18;;;;;;;26.15;16.23;;;17.50;99.90;;;;;;2621882;46;20030;31
2022/10/13 09:34:04;;;;;;;23.73;15.60;;;17.30;99.90;;;;;;2621591;46;20030;31
2022/10/13 09:36:42;;;;;;;23.13;15.02;;;17.40;99.90;;;;;;2621749;46;20072;31
2022/10/13 09:39:18;;;;;;;24.15;15.75;;;17.40;99.90;;;;;;2603291;54;20027;31
2022/10/13 09:41:54;;;;;;;23.67;16.58;;;17.50;99.90;;;;;;2621923;46;20026;31
2022/10/13 09:44:32;;;;;;;21.13;14.80;;;17.50;99.90;;;;;;2603231;54;20030;31
2022/10/13 09:47:10;;;;;;;30.80;16.77;;;17.60;99.90;;;;;;2603221;54;20821;31
2022/10/13 09:49:45;;;;;;;27.40;15.98;;;17.80;99.90;;;;;;2603169;54;20250;31
2022/10/13 09:52:24;;;;;;;24.08;14.30;;;17.90;99.90;;;;;;2603180;54;20034;31
2022/10/13 09:55:00;;;;;;;26.35;13.90;;;18.00;99.90;;;;;;2603094;54;20037;31
2022/10/13 09:57:37;;;;;;;25.17;13.15;;;18.30;99.90;;;;;;2603384;54;20063;31
2022/10/13 10:00:20;;;;;;;21.17;12.95;;;18.50;99.90;;;;;;2602281;54;20035;31
2022/10/13 10:02:57;;;;;;;28.35;13.55;;;18.40;99.90;;;;;;2621498;46;20052;31
2022/10/13 10:05:40;;;;;;;23.00;13.07;;;18.60;99.90;;;;;;2611942;46;20125;31
2022/10/13 10:08:17;;;;;;;19.95;13.15;;;18.60;99.90;;;;;;2621435;46;20026;31
2022/10/13 10:10:51;;;;;;;18.42;13.18;;;18.50;99.90;;;;;;2602978;54;20924;31
2022/10/13 10:13:29;;;;;;;22.70;13.50;;;18.40;99.90;;;;;;2603113;54;20026;31
2022/10/13 10:16:09;;;;;;;24.50;13.87;;;18.50;99.90;;;;;;2603267;54;20050;31
2022/10/13 10:18:47;;;;;;;20.95;12.20;;;18.50;99.90;;;;;;2602972;54;20939;31
2022/10/13 10:21:27;;;;;;;18.58;11.68;;;18.60;99.90;;;;;;2621950;46;20898;31
2022/10/13 10:24:03;;;;;;;28.35;12.50;;;18.70;99.90;;;;;;2603372;54;20029;31
2022/10/13 10:26:45;;;;;;;21.75;12.25;;;18.70;99.90;;;;;;2603096;54;20030;31
2022/10/13 10:29:26;;;;;;;22.23;12.75;;;18.70;99.90;;;;;;2603139;54;20023;31
2022/10/13 10:32:11;;;;;;;20.75;11.85;;;18.50;99.90;;;;;;2602806;54;20038;31
2022/10/13 10:34:49;;;;;;;19.75;11.85;;;18.50;99.90;;;;;;2603000;54;20034;31
2022/10/13 10:37:34;;;;;;;22.10;12.55;;;18.70;99.90;;;;;;2621841;47;20053;31
2022/10/13 10:40:09;;;;;;;17.15;11.02;;;18.70;99.90;;;;;;2603077;54;20831;31
2022/10/13 10:42:56;;;;;;;18.03;11.63;;;18.70;99.90;;;;;;2602958;54;20867;31
2022/10/13 10:45:33;;;;;;;18.92;11.15;;;18.60;99.90;;;;;;2603129;54;20832;31
2022/10/13 10:48:19;;;;;;;17.17;11.00;;;18.80;99.90;;;;;;2602843;54;20096;31
2022/10/13 10:50:56;;;;;;;17.35;10.50;;;18.50;99.90;;;;;;2602992;54;20026;31
2022/10/13 10:53:36;;;;;;;16.80;10.50;;;18.70;99.90;;;;;;2621394;47;20092;31
2022/10/13 10:56:17;;;;;;;19.70;10.90;;;18.70;99.90;;;;;;2621555;47;20095;31
2022/10/13 10:58:55;;;;;;;18.35;11.65;;;18.40;99.90;;;;;;2602888;54;20947;31
2022/10/13 11:01:35;;;;;;;22.52;11.60;;;18.40;99.90;;;;;;2621034;47;20829;31
2022/10/13 11:04:44;;;;;;;17.08;10.00;;;18.40;99.90;;;;;;2602707;54;20089;31
2022/10/13 11:07:54;;;;;;;19.10;9.88;;;18.30;99.90;;;;;;2603376;54;20857;31
2022/10/13 11:10:30;;;;;;;20.20;10.02;;;18.30;99.90;;;;;;2603776;54;20049;31
2022/10/13 11:13:24;;;;;;;17.57;10.10;;;18.30;99.90;;;;;;2621851;46;19934;31
2022/10/13 11:15:59;;;;;;;18.50;10.27;;;18.20;99.90;;;;;;2603762;54;20869;31
2022/10/13 11:19:04;;;;;;;21.55;10.50;;;18.20;99.90;;;;;;2603855;54;20239;31
2022/10/13 11:22:09;;;;;;;17.27;10.43;;;18.20;99.90;;;;;;2603950;54;20085;31
2022/10/13 11:27:41;;;;;;;23.13;9.93;;;18.20;99.90;;;;;;2603411;54;20932;31
2022/10/13 11:30:46;;;;;;;20.10;9.48;;;18.10;99.90;;;;;;2603826;54;20815;31
2022/10/13 11:33:36;;;;;;;15.57;9.40;;;18.10;99.90;;;;;;2603958;54;20848;31
2022/10/13 11:38:42;;;;;;;19.80;9.63;;;18.20;99.90;;;;;;2603866;54;20050;31
2022/10/13 11:41:20;;;;;;;15.65;9.00;;;18.20;99.90;;;;;;2603635;54;20034;31
2022/10/13 11:43:54;;;;;;;16.35;8.95;;;18.10;99.90;;;;;;2603519;54;20064;31
2022/10/13 11:46:35;;;;;;;13.40;8.70;;;18.10;99.90;;;;;;2603480;54;20899;31
2022/10/13 11:49:44;;;;;;;20.67;9.30;;;18.20;99.90;;;;;;2603648;54;20022;31
2022/10/13 11:54:51;;;;;;;19.35;9.20;;;18.10;99.90;;;;;;2621555;46;20863;31
2022/10/13 11:57:23;;;;;;;15.40;8.65;;;18.00;99.90;;;;;;2621864;46;21846;31
2022/10/13 11:59:58;;;;;;;13.27;7.80;;;18.10;99.90;;;;;;2603438;54;20171;31
2022/10/13 12:02:38;;;;;;;15.10;9.10;;;18.00;99.90;;;;;;2603846;54;20031;31
2022/10/13 12:05:22;;;;;;;15.93;8.97;;;18.00;99.90;;;;;;2603521;54;20085;31
2022/10/13 12:07:57;;;;;;;15.45;8.70;;;18.00;99.90;;;;;;2603566;54;20022;31
2022/10/13 12:10:32;;;;;;;11.85;7.85;;;18.10;99.90;;;;;;2603518;54;20030;31
2022/10/13 12:13:08;;;;;;;17.40;9.10;;;18.10;99.90;;;;;;2603389;54;20026;31
2022/10/13 12:15:43;;;;;;;17.40;8.40;;;18.10;99.90;;;;;;2603488;54;20022;31
2022/10/13 12:18:26;;;;;;;12.75;7.80;;;18.10;99.90;;;;;;2603560;54;20873;31
2022/10/13 12:21:01;;;;;;;14.00;8.07;;;18.00;99.90;;;;;;2603757;54;20779;31
2022/10/13 12:23:35;;;;;;;18.20;8.80;;;17.90;99.90;;;;;;2603568;54;20085;31
2022/10/13 12:26:14;;;;;;;12.98;7.45;;;17.90;99.90;;;;;;2603707;54;20074;31
2022/10/13 12:28:51;;;;;;;12.77;6.63;;;17.80;99.90;;;;;;2603584;54;20022;31
2022/10/13 12:31:26;;;;;;;12.40;7.60;;;18.00;99.90;;;;;;2603508;54;20049;31
2022/10/13 12:34:03;;;;;;;12.02;8.02;;;17.90;99.90;;;;;;2603362;54;20055;31
2022/10/13 12:36:38;;;;;;;11.50;6.95;;;18.00;99.90;;;;;;2603589;54;20032;31
2022/10/13 12:39:15;;;;;;;10.63;6.73;;;18.10;99.90;;;;;;2621593;46;20892;31
2022/10/13 12:41:49;;;;;;;11.47;7.23;;;18.00;99.90;;;;;;2603443;54;20101;31
2022/10/13 12:44:24;;;;;;;10.55;6.60;;;18.00;99.90;;;;;;2603388;54;20022;31
2022/10/13 12:47:00;;;;;;;11.77;6.60;;;18.00;99.90;;;;;;2603341;54;20101;31
2022/10/13 12:49:38;;;;;;;12.38;6.95;;;17.70;99.90;;;;;;2603445;54;20030;31
2022/10/13 12:52:14;;;;;;;14.82;6.57;;;18.10;99.90;;;;;;2603465;54;20038;31
2022/10/13 12:54:49;;;;;;;10.85;6.80;;;18.00;99.90;;;;;;2603499;54;20030;31
2022/10/13 12:57:34;;;;;;;12.55;6.60;;;18.00;99.90;;;;;;2621630;46;20051;31
2022/10/13 13:00:22;;;;;;;14.60;7.05;;;18.00;99.90;;;;;;2603261;54;20034;31
2022/10/13 13:02:57;;;;;;;18.13;6.67;;;18.00;99.90;;;;;;2603415;54;20944;31
2022/10/13 13:05:37;;;;;;;13.75;6.28;;;18.00;99.90;;;;;;2603663;54;20031;31
2022/10/13 13:08:24;;;;;;;10.70;5.95;;;18.00;99.90;;;;;;2603517;54;20026;31
2022/10/13 13:10:59;;;;;;;12.47;5.93;;;18.00;99.90;;;;;;2603707;54;20061;31
2022/10/13 13:13:33;;;;;;;9.35;6.20;;;17.90;99.90;;;;;;2621869;46;20033;31
2022/10/13 13:16:25;;;;;;;9.95;6.57;;;17.90;99.90;;;;;;2603425;54;20027;31
2022/10/13 13:18:58;;;;;;;8.98;5.50;;;18.00;99.90;;;;;;2622121;46;20960;31
2022/10/13 13:21:35;;;;;;;13.02;6.10;;;18.00;99.90;;;;;;2603362;54;19938;31
2022/10/13 13:24:10;;;;;;;13.95;5.55;;;18.00;99.90;;;;;;2621777;46;20036;31
2022/10/13 13:27:01;;;;;;;12.15;5.80;;;18.10;99.90;;;;;;2603277;54;20053;31
2022/10/13 13:29:35;;;;;;;7.85;5.07;;;18.10;99.90;;;;;;2603197;54;20026;31
2022/10/13 13:32:12;;;;;;;12.30;6.40;;;18.10;99.90;;;;;;2603603;54;20027;31
2022/10/13 13:34:46;;;;;;;11.90;5.70;;;18.10;99.90;;;;;;2603100;54;24071;31
2022/10/13 13:37:29;;;;;;;12.98;5.35;;;18.10;99.90;;;;;;2603383;54;20030;31
2022/10/13 13:40:04;;;;;;;10.63;5.05;;;18.10;99.90;;;;;;2603173;54;20040;31
2022/10/13 13:42:38;;;;;;;9.38;5.68;;;17.90;99.90;;;;;;2603134;54;20067;31
2022/10/13 13:45:14;;;;;;;10.77;5.18;;;18.10;99.90;;;;;;2603504;54;20069;31
2022/10/13 13:47:49;;;;;;;8.65;5.40;;;18.00;99.90;;;;;;2603268;54;20038;31
2022/10/13 13:50:25;;;;;;;11.52;5.90;;;18.10;99.90;;;;;;2617329;46;20019;31
2022/10/13 13:53:05;;;;;;;11.75;5.72;;;18.00;99.90;;;;;;2603346;54;20029;31